createdAt,value
2022-09-10T00:00:05.410Z,0
2022-09-10T00:02:11.195Z,0
2022-09-10T00:03:15.022Z,0
2022-09-10T00:05:21.517Z,0
2022-09-10T00:07:27.289Z,0
2022-09-10T00:09:33.848Z,0
2022-09-10T00:10:36.639Z,0
2022-09-10T00:12:42.315Z,0
2022-09-10T00:14:47.822Z,0
2022-09-10T00:16:54.781Z,0
2022-09-10T00:17:57.769Z,0
2022-09-10T00:20:04.740Z,0
2022-09-10T00:22:10.779Z,0
2022-09-10T00:23:13.570Z,0
2022-09-10T00:24:16.642Z,0
2022-09-10T00:25:19.540Z,0
2022-09-10T00:26:22.673Z,0
2022-09-10T00:27:26.019Z,0
2022-09-10T00:28:28.844Z,0
2022-09-10T00:30:34.657Z,0
2022-09-10T00:31:38.905Z,0
2022-09-10T00:32:41.850Z,0
2022-09-10T00:33:44.849Z,0
2022-09-10T00:35:50.622Z,0
2022-09-10T00:36:54.342Z,0
2022-09-10T00:37:57.211Z,0
2022-09-10T00:38:59.802Z,0
2022-09-10T00:41:06.233Z,0
2022-09-10T00:42:09.328Z,0
2022-09-10T00:43:12.781Z,0
2022-09-10T00:44:15.855Z,0
2022-09-10T00:46:21.941Z,0
2022-09-10T00:47:25.435Z,0
2022-09-10T00:49:31.726Z,0
2022-09-10T00:51:37.335Z,0
2022-09-10T00:52:42.085Z,0
2022-09-10T00:53:45.432Z,0
2022-09-10T00:54:48.583Z,0
2022-09-10T00:56:54.599Z,0
2022-09-10T00:57:57.664Z,0
2022-09-10T00:59:00.853Z,0
2022-09-10T01:00:03.416Z,0
2022-09-10T01:02:10.469Z,0
2022-09-10T01:03:14.257Z,0
2022-09-10T01:04:17.149Z,0
2022-09-10T01:05:19.930Z,0
2022-09-10T01:07:25.633Z,0
2022-09-10T01:08:28.530Z,0
2022-09-10T01:09:31.984Z,0
2022-09-10T01:10:35.795Z,0
2022-09-10T01:11:39.220Z,0
2022-09-10T01:13:45.219Z,0
2022-09-10T01:15:52.419Z,0
2022-09-10T01:16:55.833Z,0
2022-09-10T01:19:02.913Z,0
2022-09-10T01:20:06.359Z,0
2022-09-10T01:22:12.487Z,0
2022-09-10T01:24:22.930Z,0
2022-09-10T01:25:26.350Z,0
2022-09-10T01:27:32.941Z,0
2022-09-10T01:28:36.381Z,0
2022-09-10T01:30:43.054Z,0
2022-09-10T01:32:49.955Z,0
2022-09-10T01:33:53.112Z,0
2022-09-10T01:35:59.354Z,0
2022-09-10T01:37:02.232Z,0
2022-09-10T01:39:08.201Z,0
2022-09-10T01:41:13.895Z,0
2022-09-10T01:42:16.774Z,0
2022-09-10T01:43:19.637Z,0
2022-09-10T01:44:23.407Z,0
2022-09-10T01:46:29.893Z,0
2022-09-10T01:47:32.960Z,0
2022-09-10T01:49:40.097Z,0
2022-09-10T01:51:47.107Z,0
2022-09-10T01:52:50.185Z,0
2022-09-10T01:54:56.357Z,0
2022-09-10T01:55:59.561Z,0
2022-09-10T01:58:04.962Z,0
2022-09-10T02:00:11.209Z,0
2022-09-10T02:01:13.665Z,0
2022-09-10T02:02:16.728Z,0
2022-09-10T02:03:19.920Z,0
2022-09-10T02:05:26.753Z,0
2022-09-10T02:06:30.279Z,0
2022-09-10T02:08:36.516Z,0
2022-09-10T02:10:43.202Z,0
2022-09-10T02:11:46.835Z,0
2022-09-10T02:13:51.782Z,0
2022-09-10T02:15:58.690Z,0
2022-09-10T02:18:05.357Z,0
2022-09-10T02:19:08.701Z,0
2022-09-10T02:21:15.533Z,0
2022-09-10T02:23:22.784Z,0
2022-09-10T02:25:29.030Z,0
2022-09-10T02:26:32.023Z,0
2022-09-10T02:28:38.900Z,0
2022-09-10T02:30:45.649Z,0
2022-09-10T02:32:52.276Z,0
2022-09-10T02:33:55.133Z,0
2022-09-10T02:36:01.772Z,0
2022-09-10T02:38:08.824Z,0
2022-09-10T02:40:14.923Z,0
2022-09-10T02:41:18.643Z,0
2022-09-10T02:43:24.661Z,0
2022-09-10T02:45:31.212Z,0
2022-09-10T02:47:37.129Z,0
2022-09-10T02:48:40.919Z,0
2022-09-10T02:50:47.499Z,0
2022-09-10T02:52:53.709Z,0
2022-09-10T02:55:00.446Z,0
2022-09-10T02:56:04.145Z,0
2022-09-10T02:57:07.276Z,0
2022-09-10T02:58:10.690Z,0
2022-09-10T03:00:16.804Z,0
2022-09-10T03:01:19.668Z,0
2022-09-10T03:02:23.390Z,0
2022-09-10T03:03:26.148Z,0
2022-09-10T03:05:32.771Z,0
2022-09-10T03:06:35.867Z,0
2022-09-10T03:07:39.207Z,0
2022-09-10T03:08:42.995Z,0
2022-09-10T03:10:49.121Z,0
2022-09-10T03:12:55.679Z,0
2022-09-10T03:13:58.552Z,0
2022-09-10T03:16:05.573Z,0
2022-09-10T03:18:11.797Z,0
2022-09-10T03:20:16.577Z,0
2022-09-10T03:21:20.021Z,0
2022-09-10T03:23:26.807Z,0
2022-09-10T03:25:33.809Z,0
2022-09-10T03:27:39.292Z,0
2022-09-10T03:28:43.009Z,0
2022-09-10T03:30:48.535Z,0
2022-09-10T03:32:54.355Z,0
2022-09-10T03:35:00.264Z,0
2022-09-10T03:36:02.849Z,0
2022-09-10T03:38:08.543Z,0
2022-09-10T03:40:15.001Z,0
2022-09-10T03:42:22.309Z,0
2022-09-10T03:43:25.659Z,0
2022-09-10T03:45:31.298Z,0
2022-09-10T03:47:37.289Z,0
2022-09-10T03:49:44.719Z,0
2022-09-10T03:50:47.988Z,0
2022-09-10T03:52:55.128Z,0
2022-09-10T03:55:00.614Z,0
2022-09-10T03:57:08.128Z,0
2022-09-10T03:58:10.912Z,0
2022-09-10T04:00:16.185Z,0
2022-09-10T04:02:23.211Z,0
2022-09-10T04:04:30.132Z,0
2022-09-10T04:05:33.743Z,0
2022-09-10T04:07:40.185Z,0
2022-09-10T04:09:45.789Z,0
2022-09-10T04:11:52.126Z,0
2022-09-10T04:12:55.596Z,0
2022-09-10T04:13:58.589Z,0
2022-09-10T04:15:02.590Z,0
2022-09-10T04:17:08.746Z,0
2022-09-10T04:18:11.828Z,0
2022-09-10T04:19:14.536Z,0
2022-09-10T04:20:17.334Z,0
2022-09-10T04:22:23.371Z,0
2022-09-10T04:23:26.254Z,0
2022-09-10T04:24:29.972Z,0
2022-09-10T04:25:33.657Z,0
2022-09-10T04:27:40.030Z,0
2022-09-10T04:29:47.332Z,1
2022-09-10T04:30:50.205Z,1
2022-09-10T04:31:53.983Z,1
2022-09-10T04:32:57.157Z,1
2022-09-10T04:35:03.459Z,1
2022-09-10T04:37:09.057Z,2
2022-09-10T04:38:12.211Z,2
2022-09-10T04:40:17.319Z,2
2022-09-10T04:42:24.052Z,3
2022-09-10T04:43:27.280Z,4
2022-09-10T04:44:31.026Z,4
2022-09-10T04:45:34.429Z,4
2022-09-10T04:47:40.385Z,5
2022-09-10T04:49:46.394Z,6
2022-09-10T04:51:19.528Z,7
2022-09-10T04:52:22.912Z,8
2022-09-10T04:53:25.986Z,8
2022-09-10T04:55:31.622Z,9
2022-09-10T04:57:36.929Z,11
2022-09-10T04:59:47.072Z,12
2022-09-10T05:00:49.973Z,13
2022-09-10T05:02:55.899Z,14
2022-09-10T05:05:01.554Z,15
2022-09-10T05:07:08.466Z,17
2022-09-10T05:08:11.265Z,17
2022-09-10T05:10:16.696Z,18
2022-09-10T05:12:22.817Z,19
2022-09-10T05:14:29.031Z,20
2022-09-10T05:15:32.825Z,20
2022-09-10T05:17:40.276Z,22
2022-09-10T05:19:46.198Z,24
2022-09-10T05:21:51.653Z,26
2022-09-10T05:22:55.108Z,26
2022-09-10T05:25:00.340Z,28
2022-09-10T05:27:07.177Z,30
2022-09-10T05:29:13.179Z,32
2022-09-10T05:30:16.994Z,33
2022-09-10T05:32:23.875Z,33
2022-09-10T05:34:29.296Z,35
2022-09-10T05:36:35.231Z,37
2022-09-10T05:37:38.103Z,38
2022-09-10T05:39:47.241Z,39
2022-09-10T05:41:53.435Z,39
2022-09-10T05:44:00.135Z,38
2022-09-10T05:45:03.223Z,38
2022-09-10T05:47:10.693Z,40
2022-09-10T05:49:16.404Z,41
2022-09-10T05:51:22.693Z,44
2022-09-10T05:52:26.054Z,44
2022-09-10T05:53:29.691Z,44
2022-09-10T05:54:32.764Z,45
2022-09-10T05:56:38.061Z,46
2022-09-10T05:57:41.156Z,48
2022-09-10T05:58:43.863Z,49
2022-09-10T05:59:46.853Z,51
2022-09-10T06:01:53.555Z,55
2022-09-10T06:02:58.074Z,56
2022-09-10T06:04:00.760Z,57
2022-09-10T06:05:03.599Z,55
2022-09-10T06:07:08.723Z,55
2022-09-10T06:08:12.426Z,58
2022-09-10T06:09:15.784Z,59
2022-09-10T06:10:18.660Z,60
2022-09-10T06:12:24.956Z,67
2022-09-10T06:13:28.606Z,67
2022-09-10T06:14:32.074Z,70
2022-09-10T06:15:35.151Z,74
2022-09-10T06:17:42.003Z,76
2022-09-10T06:18:45.491Z,74
2022-09-10T06:19:48.958Z,71
2022-09-10T06:20:52.299Z,72
2022-09-10T06:22:58.655Z,74
2022-09-10T06:25:03.686Z,76
2022-09-10T06:26:06.754Z,79
2022-09-10T06:28:12.827Z,75
2022-09-10T06:30:18.735Z,64
2022-09-10T06:32:24.898Z,59
2022-09-10T06:33:28.642Z,56
2022-09-10T06:35:35.748Z,56
2022-09-10T06:37:42.623Z,58
2022-09-10T06:39:48.034Z,59
2022-09-10T06:40:51.440Z,60
2022-09-10T06:42:57.326Z,63
2022-09-10T06:45:03.220Z,65
2022-09-10T06:46:11.940Z,68
2022-09-10T06:48:51.205Z,69
2022-09-10T06:49:55.477Z,70
2022-09-10T06:50:58.858Z,71
2022-09-10T06:53:04.519Z,73
2022-09-10T06:55:10.553Z,75
2022-09-10T06:56:13.736Z,77
2022-09-10T06:58:20.081Z,81
2022-09-10T07:00:25.342Z,87
2022-09-10T07:02:30.987Z,92
2022-09-10T07:03:33.893Z,95
2022-09-10T07:05:41.087Z,103
2022-09-10T07:07:45.915Z,108
2022-09-10T07:09:52.140Z,113
2022-09-10T07:10:54.651Z,115
2022-09-10T07:13:00.220Z,121
2022-09-10T07:15:06.286Z,133
2022-09-10T07:17:11.780Z,139
2022-09-10T07:18:14.877Z,138
2022-09-10T07:20:21.216Z,124
2022-09-10T07:22:28.128Z,121
2022-09-10T07:23:30.971Z,118
2022-09-10T07:25:36.785Z,129
2022-09-10T07:27:43.385Z,146
2022-09-10T07:29:49.528Z,165
2022-09-10T07:30:53.343Z,171
2022-09-10T07:32:59.558Z,169
2022-09-10T07:35:05.498Z,162
2022-09-10T07:36:08.941Z,161
2022-09-10T07:38:15.863Z,160
2022-09-10T07:39:26.419Z,170
2022-09-10T07:40:30.108Z,174
2022-09-10T07:42:34.577Z,193
2022-09-10T07:43:37.388Z,199
2022-09-10T07:44:40.184Z,202
2022-09-10T07:45:44.063Z,209
2022-09-10T07:47:50.493Z,570
2022-09-10T07:48:53.089Z,689
2022-09-10T07:49:55.987Z,706
2022-09-10T07:50:59.424Z,703
2022-09-10T07:53:06.364Z,680
2022-09-10T07:54:09.355Z,644
2022-09-10T07:55:12.175Z,673
2022-09-10T07:56:15.621Z,694
2022-09-10T07:58:21.871Z,592
2022-09-10T07:59:24.739Z,440
2022-09-10T08:00:27.606Z,431
2022-09-10T08:01:31.341Z,652
2022-09-10T08:03:38.085Z,375
2022-09-10T08:04:40.527Z,248
2022-09-10T08:05:43.867Z,207
2022-09-10T08:06:46.383Z,243
2022-09-10T08:08:53.632Z,338
2022-09-10T08:10:59.280Z,794
2022-09-10T08:12:02.714Z,760
2022-09-10T08:14:08.842Z,813
2022-09-10T08:16:15.397Z,793
2022-09-10T08:18:21.030Z,878
2022-09-10T08:19:24.023Z,581
2022-09-10T08:21:30.440Z,845
2022-09-10T08:23:37.552Z,820
2022-09-10T08:25:44.759Z,850
2022-09-10T08:26:48.481Z,871
2022-09-10T08:28:54.804Z,900
2022-09-10T08:31:00.520Z,765
2022-09-10T08:33:07.153Z,800
2022-09-10T08:34:10.892Z,871
2022-09-10T08:36:16.730Z,847
2022-09-10T08:38:22.494Z,882
2022-09-10T08:40:29.380Z,920
2022-09-10T08:41:33.025Z,942
2022-09-10T08:43:39.590Z,982
2022-09-10T08:45:45.505Z,992
2022-09-10T08:46:48.116Z,990
2022-09-10T08:48:53.783Z,987
2022-09-10T08:49:57.400Z,996
2022-09-10T08:51:00.490Z,1013
2022-09-10T08:52:03.007Z,1017
2022-09-10T08:54:09.143Z,1033
2022-09-10T08:55:12.491Z,1020
2022-09-10T08:57:19.972Z,1019
2022-09-10T08:59:26.382Z,1012
2022-09-10T09:00:29.450Z,1019
2022-09-10T09:02:51.666Z,972
2022-09-10T09:04:57.112Z,996
2022-09-10T09:07:02.693Z,1031
2022-09-10T09:08:05.670Z,1066
2022-09-10T09:09:16.296Z,1089
2022-09-10T09:10:19.749Z,1105
2022-09-10T09:12:25.760Z,1099
2022-09-10T09:13:29.135Z,1105
2022-09-10T09:15:35.709Z,676
2022-09-10T09:16:38.887Z,922
2022-09-10T09:18:44.912Z,1117
2022-09-10T09:20:51.896Z,1125
2022-09-10T09:21:55.598Z,1113
2022-09-10T09:24:16.731Z,1093
2022-09-10T09:26:23.139Z,1117
2022-09-10T09:27:26.640Z,1130
2022-09-10T09:28:29.988Z,1135
2022-09-10T09:29:33.259Z,1127
2022-09-10T09:31:40.043Z,1136
2022-09-10T09:32:42.822Z,1140
2022-09-10T09:34:48.277Z,263
2022-09-10T09:36:55.715Z,208
2022-09-10T09:37:58.424Z,180
2022-09-10T09:40:04.340Z,166
2022-09-10T09:42:10.640Z,191
2022-09-10T09:43:14.404Z,192
2022-09-10T09:45:20.554Z,217
2022-09-10T09:47:27.343Z,512
2022-09-10T09:48:30.964Z,422
2022-09-10T09:50:36.993Z,254
2022-09-10T09:52:43.512Z,216
2022-09-10T09:55:16.160Z,189
2022-09-10T09:56:19.210Z,200
2022-09-10T09:58:26.793Z,289
2022-09-10T10:00:31.921Z,252
2022-09-10T10:01:35.387Z,234
2022-09-10T10:03:42.420Z,217
2022-09-10T10:04:45.238Z,210
2022-09-10T10:06:50.653Z,219
2022-09-10T10:08:57.256Z,262
2022-09-10T10:10:00.551Z,287
2022-09-10T10:11:03.705Z,293
2022-09-10T10:12:07.422Z,360
2022-09-10T10:14:13.918Z,432
2022-09-10T10:16:19.594Z,1315
2022-09-10T10:17:22.178Z,1151
2022-09-10T10:19:27.992Z,987
2022-09-10T10:21:34.655Z,1227
2022-09-10T10:23:41.075Z,715
2022-09-10T10:24:44.173Z,1215
2022-09-10T10:26:49.922Z,1251
2022-09-10T10:28:55.978Z,1113
2022-09-10T10:29:59.746Z,1047
2022-09-10T10:32:07.391Z,1174
2022-09-10T10:34:14.191Z,1174
2022-09-10T10:35:17.270Z,1185
2022-09-10T10:37:23.225Z,1165
2022-09-10T10:39:29.390Z,1150
2022-09-10T10:40:33.104Z,1163
2022-09-10T10:42:38.447Z,594
2022-09-10T10:43:41.231Z,1156
2022-09-10T10:45:48.284Z,1156
2022-09-10T10:47:54.179Z,422
2022-09-10T10:49:04.640Z,266
2022-09-10T10:50:08.231Z,246
2022-09-10T10:51:10.769Z,238
2022-09-10T10:52:13.565Z,219
2022-09-10T10:54:19.272Z,186
2022-09-10T10:56:24.380Z,176
2022-09-10T10:57:27.101Z,171
2022-09-10T10:59:33.508Z,165
2022-09-10T11:00:36.659Z,165
2022-09-10T11:02:43.575Z,157
2022-09-10T11:04:49.807Z,137
2022-09-10T11:05:52.870Z,128
2022-09-10T11:07:58.687Z,124
2022-09-10T11:10:05.582Z,117
2022-09-10T11:11:08.784Z,112
2022-09-10T11:13:13.889Z,109
2022-09-10T11:14:16.748Z,108
2022-09-10T11:15:19.813Z,107
2022-09-10T11:16:22.992Z,105
2022-09-10T11:18:30.024Z,106
2022-09-10T11:19:32.818Z,105
2022-09-10T11:21:38.211Z,96
2022-09-10T11:22:41.332Z,90
2022-09-10T11:24:47.654Z,86
2022-09-10T11:26:53.241Z,99
2022-09-10T11:27:56.329Z,100
2022-09-10T11:30:01.709Z,95
2022-09-10T11:32:07.964Z,95
2022-09-10T11:33:12.017Z,92
2022-09-10T11:35:17.892Z,94
2022-09-10T11:37:24.289Z,99
2022-09-10T11:38:28.004Z,98
2022-09-10T11:40:34.277Z,95
2022-09-10T11:42:40.848Z,87
2022-09-10T11:43:43.637Z,83
2022-09-10T11:45:48.960Z,76
2022-09-10T11:46:51.757Z,74
2022-09-10T11:48:58.820Z,75
2022-09-10T11:50:02.277Z,77
2022-09-10T11:51:05.638Z,78
2022-09-10T11:52:09.646Z,80
2022-09-10T11:54:15.746Z,86
2022-09-10T11:56:22.229Z,98
2022-09-10T11:57:25.962Z,102
2022-09-10T11:59:31.791Z,115
2022-09-10T12:00:34.587Z,122
2022-09-10T12:02:39.978Z,126
2022-09-10T12:03:44.137Z,127
2022-09-10T12:05:53.256Z,134
2022-09-10T12:07:59.479Z,132
2022-09-10T12:09:03.202Z,135
2022-09-10T12:11:10.045Z,131
2022-09-10T12:13:17.015Z,125
2022-09-10T12:14:20.008Z,118
2022-09-10T12:15:22.527Z,116
2022-09-10T12:16:26.253Z,103
2022-09-10T12:18:32.136Z,89
2022-09-10T12:19:35.371Z,81
2022-09-10T12:21:42.659Z,72
2022-09-10T12:23:48.232Z,69
2022-09-10T12:24:51.724Z,68
2022-09-10T12:26:58.953Z,64
2022-09-10T12:28:02.028Z,60
2022-09-10T12:29:04.906Z,57
2022-09-10T12:30:08.053Z,54
2022-09-10T12:32:14.493Z,51
2022-09-10T12:33:17.947Z,51
2022-09-10T12:34:20.930Z,50
2022-09-10T12:35:23.806Z,51
2022-09-10T12:37:30.382Z,57
2022-09-10T12:38:33.171Z,59
2022-09-10T12:40:39.140Z,57
2022-09-10T12:42:44.184Z,56
2022-09-10T12:43:46.999Z,56
2022-09-10T12:45:53.168Z,60
2022-09-10T12:46:56.913Z,60
2022-09-10T12:49:03.324Z,64
2022-09-10T12:50:06.321Z,67
2022-09-10T12:52:13.892Z,73
2022-09-10T12:54:18.833Z,77
2022-09-10T12:55:21.383Z,79
2022-09-10T12:57:27.160Z,79
2022-09-10T12:58:30.225Z,81
2022-09-10T13:00:36.068Z,82
2022-09-10T13:02:43.440Z,87
2022-09-10T13:03:46.863Z,87
2022-09-10T13:05:53.162Z,86
2022-09-10T13:08:01.012Z,85
2022-09-10T13:09:04.193Z,86
2022-09-10T13:11:10.131Z,87
2022-09-10T13:13:15.599Z,91
2022-09-10T13:14:18.475Z,92
2022-09-10T13:15:21.823Z,92
2022-09-10T13:16:24.620Z,93
2022-09-10T13:17:28.345Z,94
2022-09-10T13:19:34.174Z,96
2022-09-10T13:21:40.682Z,103
2022-09-10T13:22:44.209Z,106
2022-09-10T13:24:51.525Z,111
2022-09-10T13:26:56.727Z,116
2022-09-10T13:28:00.428Z,121
2022-09-10T13:30:06.721Z,182
2022-09-10T13:32:13.399Z,220
2022-09-10T13:33:30.824Z,195
2022-09-10T13:34:34.474Z,185
2022-09-10T13:35:37.607Z,188
2022-09-10T13:37:43.350Z,192
2022-09-10T13:38:46.793Z,244
2022-09-10T13:40:52.838Z,203
2022-09-10T13:42:58.971Z,182
2022-09-10T13:44:02.895Z,187
2022-09-10T13:46:09.471Z,182
2022-09-10T13:48:15.166Z,194
2022-09-10T13:49:18.892Z,188
2022-09-10T13:51:24.120Z,183
2022-09-10T13:53:30.356Z,188
2022-09-10T13:54:33.888Z,189
2022-09-10T13:55:37.652Z,188
2022-09-10T13:56:41.375Z,183
2022-09-10T13:58:47.317Z,172
2022-09-10T13:59:50.180Z,167
2022-09-10T14:01:56.311Z,152
2022-09-10T14:04:01.798Z,143
2022-09-10T14:05:04.670Z,142
2022-09-10T14:07:10.262Z,143
2022-09-10T14:09:16.057Z,146
2022-09-10T14:11:24.039Z,149
2022-09-10T14:12:28.136Z,149
2022-09-10T14:14:34.624Z,145
2022-09-10T14:16:41.007Z,144
2022-09-10T14:17:44.019Z,145
2022-09-10T14:19:49.982Z,151
2022-09-10T14:21:55.940Z,159
2022-09-10T14:22:58.639Z,162
2022-09-10T14:24:01.048Z,168
2022-09-10T14:25:03.821Z,174
2022-09-10T14:26:07.303Z,180
2022-09-10T14:27:11.053Z,185
2022-09-10T14:28:14.423Z,189
2022-09-10T14:29:17.867Z,191
2022-09-10T14:30:20.934Z,190
2022-09-10T14:31:24.506Z,189
2022-09-10T14:32:27.582Z,189
2022-09-10T14:33:30.370Z,195
2022-09-10T14:34:32.986Z,253
2022-09-10T14:35:36.053Z,289
2022-09-10T14:36:39.152Z,205
2022-09-10T14:37:41.870Z,215
2022-09-10T14:39:47.596Z,196
2022-09-10T14:40:50.775Z,188
2022-09-10T14:42:58.120Z,176
2022-09-10T14:45:03.441Z,172
2022-09-10T14:46:07.188Z,176
2022-09-10T14:47:10.430Z,250
2022-09-10T14:48:14.113Z,424
2022-09-10T14:50:20.465Z,344
2022-09-10T14:51:23.446Z,274
2022-09-10T14:52:26.028Z,201
2022-09-10T14:53:29.125Z,180
2022-09-10T14:55:35.441Z,212
2022-09-10T14:56:38.254Z,216
2022-09-10T14:57:41.031Z,212
2022-09-10T14:58:45.078Z,211
2022-09-10T15:00:52.155Z,206
2022-09-10T15:01:56.277Z,203
2022-09-10T15:02:59.163Z,202
2022-09-10T15:04:02.591Z,201
2022-09-10T15:06:09.120Z,199
2022-09-10T15:07:12.602Z,191
2022-09-10T15:08:15.384Z,198
2022-09-10T15:09:19.129Z,192
2022-09-10T15:11:25.210Z,187
2022-09-10T15:12:28.939Z,182
2022-09-10T15:13:32.495Z,179
2022-09-10T15:14:36.334Z,173
2022-09-10T15:16:42.948Z,169
2022-09-10T15:18:49.483Z,170
2022-09-10T15:19:52.558Z,168
2022-09-10T15:21:59.002Z,145
2022-09-10T15:24:04.691Z,127
2022-09-10T15:25:12.857Z,124
2022-09-10T15:26:15.643Z,123
2022-09-10T15:27:18.633Z,118
2022-09-10T15:29:24.790Z,114
2022-09-10T15:30:28.662Z,114
2022-09-10T15:32:39.346Z,129
2022-09-10T15:34:46.374Z,119
2022-09-10T15:36:52.692Z,98
2022-09-10T15:37:55.480Z,119
2022-09-10T15:40:02.737Z,110
2022-09-10T15:42:09.079Z,96
2022-09-10T15:44:14.936Z,104
2022-09-10T15:45:18.448Z,110
2022-09-10T15:47:25.391Z,100
2022-09-10T15:49:31.419Z,104
2022-09-10T15:51:37.745Z,106
2022-09-10T15:52:41.159Z,109
2022-09-10T15:53:44.049Z,92
2022-09-10T15:54:46.649Z,95
2022-09-10T15:56:52.327Z,91
2022-09-10T15:57:54.852Z,88
2022-09-10T16:00:00.526Z,93
2022-09-10T16:02:07.511Z,85
2022-09-10T16:04:13.702Z,93
2022-09-10T16:05:16.771Z,107
2022-09-10T16:06:20.128Z,107
2022-09-10T16:07:22.566Z,106
2022-09-10T16:09:29.643Z,98
2022-09-10T16:10:33.119Z,94
2022-09-10T16:11:36.483Z,90
2022-09-10T16:12:40.133Z,87
2022-09-10T16:14:46.835Z,84
2022-09-10T16:15:50.306Z,79
2022-09-10T16:17:58.108Z,63
2022-09-10T16:20:04.400Z,53
2022-09-10T16:21:07.748Z,50
2022-09-10T16:23:12.814Z,47
2022-09-10T16:25:18.609Z,46
2022-09-10T16:27:24.464Z,44
2022-09-10T16:28:27.562Z,44
2022-09-10T16:30:33.840Z,42
2022-09-10T16:32:40.534Z,37
2022-09-10T16:33:44.092Z,35
2022-09-10T16:34:47.419Z,34
2022-09-10T16:35:50.190Z,33
2022-09-10T16:37:56.234Z,31
2022-09-10T16:38:59.766Z,30
2022-09-10T16:41:06.991Z,30
2022-09-10T16:43:13.070Z,29
2022-09-10T16:45:19.761Z,29
2022-09-10T16:46:23.420Z,29
2022-09-10T16:47:25.957Z,28
2022-09-10T16:48:29.913Z,28
2022-09-10T16:50:37.536Z,27
2022-09-10T16:51:42.306Z,27
2022-09-10T16:52:45.499Z,26
2022-09-10T16:53:49.101Z,26
2022-09-10T16:55:57.317Z,25
2022-09-10T16:57:00.583Z,25
2022-09-10T16:58:04.084Z,24
2022-09-10T16:59:07.262Z,23
2022-09-10T17:01:13.817Z,21
2022-09-10T17:03:19.900Z,20
2022-09-10T17:04:31.253Z,20
2022-09-10T17:06:37.665Z,19
2022-09-10T17:08:42.978Z,17
2022-09-10T17:10:49.569Z,16
2022-09-10T17:11:52.363Z,16
2022-09-10T17:13:59.207Z,14
2022-09-10T17:16:09.786Z,13
2022-09-10T17:18:15.826Z,12
2022-09-10T17:19:18.925Z,11
2022-09-10T17:20:22.269Z,11
2022-09-10T17:21:26.034Z,10
2022-09-10T17:23:32.431Z,9
2022-09-10T17:24:35.779Z,9
2022-09-10T17:25:39.216Z,9
2022-09-10T17:26:42.036Z,8
2022-09-10T17:28:47.332Z,7
2022-09-10T17:29:50.536Z,7
2022-09-10T17:30:53.759Z,7
2022-09-10T17:31:57.014Z,6
2022-09-10T17:34:02.546Z,5
2022-09-10T17:35:05.922Z,5
2022-09-10T17:36:09.358Z,5
2022-09-10T17:37:13.141Z,4
2022-09-10T17:39:19.276Z,3
2022-09-10T17:41:24.584Z,3
2022-09-10T17:42:28.021Z,2
2022-09-10T17:44:34.532Z,2
2022-09-10T17:46:40.975Z,1
2022-09-10T17:48:46.960Z,1
2022-09-10T17:49:50.437Z,1
2022-09-10T17:51:56.462Z,1
2022-09-10T17:54:03.533Z,0
2022-09-10T17:56:09.598Z,0
2022-09-10T17:57:12.745Z,0
2022-09-10T17:59:19.185Z,0
2022-09-10T18:01:26.573Z,0
2022-09-10T18:03:33.662Z,0
2022-09-10T18:04:36.474Z,0
2022-09-10T18:06:42.959Z,0
2022-09-10T18:08:50.487Z,0
2022-09-10T18:10:56.079Z,0
2022-09-10T18:11:59.526Z,0
2022-09-10T18:14:05.992Z,0
2022-09-10T18:16:12.765Z,0
2022-09-10T18:18:19.077Z,0
2022-09-10T18:19:22.229Z,0
2022-09-10T18:21:28.190Z,0
2022-09-10T18:23:33.869Z,0
2022-09-10T18:25:40.336Z,0
2022-09-10T18:26:43.718Z,0
2022-09-10T18:28:49.937Z,0
2022-09-10T18:30:56.641Z,0
2022-09-10T18:33:02.343Z,0
2022-09-10T18:34:05.435Z,0
2022-09-10T18:36:11.179Z,0
2022-09-10T18:38:18.131Z,0
2022-09-10T18:39:21.566Z,0
2022-09-10T18:40:25.342Z,0
2022-09-10T18:41:28.416Z,0
2022-09-10T18:43:34.781Z,0
2022-09-10T18:45:40.831Z,0
2022-09-10T18:46:44.369Z,0
2022-09-10T18:48:50.776Z,0
2022-09-10T18:50:56.805Z,0
2022-09-10T18:53:02.402Z,0
2022-09-10T18:54:05.834Z,0
2022-09-10T18:56:13.206Z,0
2022-09-10T18:58:19.253Z,0
2022-09-10T19:00:25.825Z,0
2022-09-10T19:01:28.792Z,0
2022-09-10T19:03:35.864Z,0
2022-09-10T19:05:15.822Z,0
2022-09-10T19:06:18.821Z,0
2022-09-10T19:08:24.486Z,0
2022-09-10T19:10:31.792Z,0
2022-09-10T19:11:35.570Z,0
2022-09-10T19:13:42.128Z,0
2022-09-10T19:15:47.457Z,0
2022-09-10T19:16:50.280Z,0
2022-09-10T19:18:56.315Z,0
2022-09-10T19:21:02.001Z,0
2022-09-10T19:23:08.149Z,0
2022-09-10T19:24:10.384Z,0
2022-09-10T19:26:16.822Z,0
2022-09-10T19:28:24.030Z,0
2022-09-10T19:29:28.031Z,0
2022-09-10T19:30:37.402Z,0
2022-09-10T19:31:39.835Z,0
2022-09-10T19:33:45.996Z,0
2022-09-10T19:35:58.349Z,0
2022-09-10T19:37:01.228Z,0
2022-09-10T19:38:39.317Z,0
2022-09-10T19:40:45.873Z,0
2022-09-10T19:41:49.958Z,0
2022-09-10T19:42:54.020Z,0
2022-09-10T19:43:56.826Z,0
2022-09-10T19:46:02.985Z,0
2022-09-10T19:47:06.146Z,0
2022-09-10T19:48:09.492Z,0
2022-09-10T19:49:11.952Z,0
2022-09-10T19:51:17.145Z,0
2022-09-10T19:52:20.869Z,0
2022-09-10T19:53:24.214Z,0
2022-09-10T19:54:27.996Z,0
2022-09-10T19:56:34.316Z,0
2022-09-10T19:58:41.791Z,0
2022-09-10T19:59:45.018Z,0
2022-09-10T20:01:53.279Z,0
2022-09-10T20:03:59.675Z,0
2022-09-10T20:06:05.501Z,0
2022-09-10T20:07:07.752Z,0
2022-09-10T20:09:15.296Z,0
2022-09-10T20:11:20.724Z,0
2022-09-10T20:13:27.414Z,0
2022-09-10T20:14:31.455Z,0
2022-09-10T20:16:37.570Z,0
2022-09-10T20:18:43.678Z,0
2022-09-10T20:20:50.549Z,0
2022-09-10T20:21:53.259Z,0
2022-09-10T20:23:58.600Z,0
2022-09-10T20:26:05.901Z,0
2022-09-10T20:28:12.076Z,0
2022-09-10T20:29:15.525Z,0
2022-09-10T20:31:23.346Z,0
2022-09-10T20:33:29.811Z,0
2022-09-10T20:35:34.921Z,0
2022-09-10T20:36:37.356Z,0
2022-09-10T20:38:43.391Z,0
2022-09-10T20:40:49.683Z,0
2022-09-10T20:42:55.985Z,0
2022-09-10T20:43:58.218Z,0
2022-09-10T20:46:05.691Z,0
2022-09-10T20:48:12.279Z,0
2022-09-10T20:50:17.862Z,0
2022-09-10T20:51:20.476Z,0
2022-09-10T20:53:27.185Z,0
2022-09-10T20:55:34.049Z,0
2022-09-10T20:56:37.467Z,0
2022-09-10T20:57:40.539Z,0
2022-09-10T20:58:44.285Z,0
2022-09-10T21:00:50.514Z,0
2022-09-10T21:02:58.434Z,0
2022-09-10T21:04:01.717Z,0
2022-09-10T21:06:08.083Z,0
2022-09-10T21:08:14.897Z,0
2022-09-10T21:10:21.197Z,0
2022-09-10T21:11:23.990Z,0
2022-09-10T21:13:29.805Z,0
2022-09-10T21:15:36.378Z,0
2022-09-10T21:17:43.027Z,0
2022-09-10T21:18:45.754Z,0
2022-09-10T21:20:51.817Z,0
2022-09-10T21:22:58.311Z,0
2022-09-10T21:24:01.111Z,0
2022-09-10T21:26:06.482Z,0
2022-09-10T21:28:12.433Z,0
2022-09-10T21:30:19.215Z,0
2022-09-10T21:31:22.610Z,0
2022-09-10T21:33:29.934Z,0
2022-09-10T21:35:35.627Z,0
2022-09-10T21:37:41.207Z,0
2022-09-10T21:38:44.736Z,0
2022-09-10T21:40:50.286Z,0
2022-09-10T21:42:56.226Z,0
2022-09-10T21:43:59.024Z,0
2022-09-10T21:46:04.885Z,0
2022-09-10T21:48:11.591Z,0
2022-09-10T21:50:18.311Z,0
2022-09-10T21:51:21.207Z,0
2022-09-10T21:53:27.209Z,0
2022-09-10T21:55:34.616Z,0
2022-09-10T21:56:37.476Z,0
2022-09-10T21:57:41.146Z,0
2022-09-10T21:58:45.564Z,0
2022-09-10T22:00:51.690Z,0
2022-09-10T22:03:00.263Z,0
2022-09-10T22:04:03.666Z,0
2022-09-10T22:06:10.262Z,0
2022-09-10T22:08:17.257Z,0
2022-09-10T22:09:21.141Z,0
2022-09-10T22:10:24.014Z,0
2022-09-10T22:11:27.164Z,0
2022-09-10T22:13:33.613Z,0
2022-09-10T22:15:41.884Z,0
2022-09-10T22:17:48.538Z,0
2022-09-10T22:18:52.427Z,0
2022-09-10T22:20:59.793Z,0
2022-09-10T22:23:06.196Z,0
2022-09-10T22:25:12.513Z,0
2022-09-10T22:26:15.991Z,0
2022-09-10T22:28:22.064Z,0
2022-09-10T22:30:27.762Z,0
2022-09-10T22:31:30.895Z,0
2022-09-10T22:32:34.611Z,0
2022-09-10T22:33:38.666Z,0
2022-09-10T22:35:44.483Z,0
2022-09-10T22:37:51.646Z,0
2022-09-10T22:38:54.466Z,0
2022-09-10T22:41:00.135Z,0
2022-09-10T22:43:05.610Z,0
2022-09-10T22:44:09.075Z,0
2022-09-10T22:45:11.324Z,0
2022-09-10T22:46:15.343Z,0
2022-09-10T22:48:37.026Z,0
2022-09-10T22:50:43.487Z,0
2022-09-10T22:52:52.004Z,0
2022-09-10T22:53:55.442Z,0
2022-09-10T22:56:01.012Z,0
2022-09-10T22:58:08.051Z,0
2022-09-10T23:00:14.682Z,0
2022-09-10T23:01:18.776Z,0
2022-09-10T23:03:41.386Z,0
2022-09-10T23:05:48.450Z,0
2022-09-10T23:07:55.866Z,0
2022-09-10T23:08:59.309Z,0
2022-09-10T23:10:17.390Z,0
2022-09-10T23:11:20.714Z,0
2022-09-10T23:13:26.699Z,0